sensor_id;sensor_type;location;lat;lon;timestamp;temperature;humidity
16441;DHT22;8330;-33.858;151.184;2023-04-06T00:02:06;20.60;99.90
16441;DHT22;8330;-33.858;151.184;2023-04-06T00:04:38;20.60;99.90
16441;DHT22;8330;-33.858;151.184;2023-04-06T00:07:09;20.60;99.90
16441;DHT22;8330;-33.858;151.184;2023-04-06T00:09:42;20.50;99.90
16441;DHT22;8330;-33.858;151.184;2023-04-06T00:12:13;20.50;99.90
16441;DHT22;8330;-33.858;151.184;2023-04-06T00:14:44;20.40;99.90
16441;DHT22;8330;-33.858;151.184;2023-04-06T00:17:16;20.40;99.90
16441;DHT22;8330;-33.858;151.184;2023-04-06T00:19:47;20.50;99.90
16441;DHT22;8330;-33.858;151.184;2023-04-06T00:22:18;20.50;99.90
16441;DHT22;8330;-33.858;151.184;2023-04-06T00:24:51;20.50;99.90
16441;DHT22;8330;-33.858;151.184;2023-04-06T00:27:22;20.60;99.90
16441;DHT22;8330;-33.858;151.184;2023-04-06T00:29:53;20.60;99.90
16441;DHT22;8330;-33.858;151.184;2023-04-06T00:32:25;20.60;99.90
16441;DHT22;8330;-33.858;151.184;2023-04-06T00:34:56;20.50;99.90
16441;DHT22;8330;-33.858;151.184;2023-04-06T00:37:26;20.50;99.90
16441;DHT22;8330;-33.858;151.184;2023-04-06T00:40:01;20.50;99.90
16441;DHT22;8330;-33.858;151.184;2023-04-06T00:42:32;20.50;99.90
16441;DHT22;8330;-33.858;151.184;2023-04-06T00:45:03;20.60;99.90
16441;DHT22;8330;-33.858;151.184;2023-04-06T00:47:34;20.60;99.90
16441;DHT22;8330;-33.858;151.184;2023-04-06T00:50:05;20.80;99.90
16441;DHT22;8330;-33.858;151.184;2023-04-06T00:52:36;20.90;99.90
16441;DHT22;8330;-33.858;151.184;2023-04-06T00:55:09;21.00;99.90
16441;DHT22;8330;-33.858;151.184;2023-04-06T00:57:40;21.10;99.90
16441;DHT22;8330;-33.858;151.184;2023-04-06T01:00:11;21.20;99.90
16441;DHT22;8330;-33.858;151.184;2023-04-06T01:02:42;21.30;99.90
16441;DHT22;8330;-33.858;151.184;2023-04-06T01:05:13;21.20;99.90
16441;DHT22;8330;-33.858;151.184;2023-04-06T01:07:44;21.20;99.90
16441;DHT22;8330;-33.858;151.184;2023-04-06T01:10:26;21.20;99.90
16441;DHT22;8330;-33.858;151.184;2023-04-06T01:12:56;21.20;99.90
16441;DHT22;8330;-33.858;151.184;2023-04-06T01:15:28;21.30;99.90
16441;DHT22;8330;-33.858;151.184;2023-04-06T01:17:59;21.40;99.90
16441;DHT22;8330;-33.858;151.184;2023-04-06T01:20:30;21.50;99.90
16441;DHT22;8330;-33.858;151.184;2023-04-06T01:23:02;21.60;99.90
16441;DHT22;8330;-33.858;151.184;2023-04-06T01:25:33;21.70;99.90
16441;DHT22;8330;-33.858;151.184;2023-04-06T01:28:03;21.70;99.90
16441;DHT22;8330;-33.858;151.184;2023-04-06T01:30:34;21.80;99.90
16441;DHT22;8330;-33.858;151.184;2023-04-06T01:33:05;21.80;99.90
16441;DHT22;8330;-33.858;151.184;2023-04-06T01:35:36;21.80;99.90
16441;DHT22;8330;-33.858;151.184;2023-04-06T01:38:08;21.80;99.90
16441;DHT22;8330;-33.858;151.184;2023-04-06T01:40:39;21.80;99.90
16441;DHT22;8330;-33.858;151.184;2023-04-06T01:43:10;21.80;99.90
16441;DHT22;8330;-33.858;151.184;2023-04-06T01:45:40;21.80;99.90
16441;DHT22;8330;-33.858;151.184;2023-04-06T01:48:11;22.00;99.90
16441;DHT22;8330;-33.858;151.184;2023-04-06T01:50:42;22.00;99.90
16441;DHT22;8330;-33.858;151.184;2023-04-06T01:53:14;22.00;99.90
16441;DHT22;8330;-33.858;151.184;2023-04-06T01:55:45;22.10;99.90
16441;DHT22;8330;-33.858;151.184;2023-04-06T01:58:16;22.20;99.90
16441;DHT22;8330;-33.858;151.184;2023-04-06T02:00:46;22.30;99.90
16441;DHT22;8330;-33.858;151.184;2023-04-06T02:03:17;22.40;99.90
16441;DHT22;8330;-33.858;151.184;2023-04-06T02:05:48;22.50;99.90
16441;DHT22;8330;-33.858;151.184;2023-04-06T02:08:21;22.50;99.90
16441;DHT22;8330;-33.858;151.184;2023-04-06T02:10:52;22.70;99.90
16441;DHT22;8330;-33.858;151.184;2023-04-06T02:13:23;22.80;99.90
16441;DHT22;8330;-33.858;151.184;2023-04-06T02:15:54;22.90;99.90
16441;DHT22;8330;-33.858;151.184;2023-04-06T02:18:25;22.90;99.90
16441;DHT22;8330;-33.858;151.184;2023-04-06T02:20:57;23.10;99.90
16441;DHT22;8330;-33.858;151.184;2023-04-06T02:23:30;23.10;99.90
16441;DHT22;8330;-33.858;151.184;2023-04-06T02:26:01;23.00;99.90
16441;DHT22;8330;-33.858;151.184;2023-04-06T02:28:32;22.90;99.90
16441;DHT22;8330;-33.858;151.184;2023-04-06T02:31:03;22.90;99.90
16441;DHT22;8330;-33.858;151.184;2023-04-06T02:33:34;22.90;99.90
16441;DHT22;8330;-33.858;151.184;2023-04-06T02:36:06;22.80;99.90
16441;DHT22;8330;-33.858;151.184;2023-04-06T02:38:39;22.90;99.90
16441;DHT22;8330;-33.858;151.184;2023-04-06T02:41:10;22.90;99.90
16441;DHT22;8330;-33.858;151.184;2023-04-06T02:43:41;23.00;99.90
16441;DHT22;8330;-33.858;151.184;2023-04-06T02:46:12;23.10;99.90
16441;DHT22;8330;-33.858;151.184;2023-04-06T02:48:44;23.00;99.90
16441;DHT22;8330;-33.858;151.184;2023-04-06T02:51:15;23.00;99.90
16441;DHT22;8330;-33.858;151.184;2023-04-06T02:53:49;23.10;99.90
16441;DHT22;8330;-33.858;151.184;2023-04-06T02:56:20;23.10;99.90
16441;DHT22;8330;-33.858;151.184;2023-04-06T02:58:51;23.00;99.90
16441;DHT22;8330;-33.858;151.184;2023-04-06T03:01:22;23.00;99.90
16441;DHT22;8330;-33.858;151.184;2023-04-06T03:03:53;23.00;99.90
16441;DHT22;8330;-33.858;151.184;2023-04-06T03:06:24;23.10;99.90
16441;DHT22;8330;-33.858;151.184;2023-04-06T03:08:57;23.00;99.90
16441;DHT22;8330;-33.858;151.184;2023-04-06T03:11:28;23.00;99.90
16441;DHT22;8330;-33.858;151.184;2023-04-06T03:14:00;23.00;99.90
16441;DHT22;8330;-33.858;151.184;2023-04-06T03:16:31;23.00;99.90
16441;DHT22;8330;-33.858;151.184;2023-04-06T03:19:02;23.10;99.90
16441;DHT22;8330;-33.858;151.184;2023-04-06T03:21:33;23.10;99.90
16441;DHT22;8330;-33.858;151.184;2023-04-06T03:24:07;23.10;99.90
16441;DHT22;8330;-33.858;151.184;2023-04-06T03:26:38;23.00;99.90
16441;DHT22;8330;-33.858;151.184;2023-04-06T03:29:09;23.00;99.90
16441;DHT22;8330;-33.858;151.184;2023-04-06T03:31:40;23.10;99.90
16441;DHT22;8330;-33.858;151.184;2023-04-06T03:34:11;23.10;99.90
16441;DHT22;8330;-33.858;151.184;2023-04-06T03:36:43;23.10;99.90
16441;DHT22;8330;-33.858;151.184;2023-04-06T03:39:16;23.10;99.90
16441;DHT22;8330;-33.858;151.184;2023-04-06T03:41:47;23.20;99.90
16441;DHT22;8330;-33.858;151.184;2023-04-06T03:44:18;23.30;99.90
16441;DHT22;8330;-33.858;151.184;2023-04-06T03:46:49;23.30;99.90
16441;DHT22;8330;-33.858;151.184;2023-04-06T03:49:20;23.30;99.90
16441;DHT22;8330;-33.858;151.184;2023-04-06T03:51:52;23.40;99.90
16441;DHT22;8330;-33.858;151.184;2023-04-06T03:54:25;23.50;99.90
16441;DHT22;8330;-33.858;151.184;2023-04-06T03:56:56;23.40;99.90
16441;DHT22;8330;-33.858;151.184;2023-04-06T03:59:28;23.40;99.90
16441;DHT22;8330;-33.858;151.184;2023-04-06T04:01:59;23.40;99.90
16441;DHT22;8330;-33.858;151.184;2023-04-06T04:04:30;23.30;99.90
16441;DHT22;8330;-33.858;151.184;2023-04-06T04:07:01;23.30;99.90
16441;DHT22;8330;-33.858;151.184;2023-04-06T04:09:34;23.30;99.90
16441;DHT22;8330;-33.858;151.184;2023-04-06T04:12:06;23.20;99.90
16441;DHT22;8330;-33.858;151.184;2023-04-06T04:14:37;23.10;99.90
16441;DHT22;8330;-33.858;151.184;2023-04-06T04:17:08;23.10;99.90
16441;DHT22;8330;-33.858;151.184;2023-04-06T04:19:39;23.10;99.90
16441;DHT22;8330;-33.858;151.184;2023-04-06T04:22:10;23.20;99.90
16441;DHT22;8330;-33.858;151.184;2023-04-06T04:24:44;23.20;99.90
16441;DHT22;8330;-33.858;151.184;2023-04-06T04:27:15;23.20;99.90
16441;DHT22;8330;-33.858;151.184;2023-04-06T04:29:46;23.20;99.90
16441;DHT22;8330;-33.858;151.184;2023-04-06T04:32:17;23.20;99.90
16441;DHT22;8330;-33.858;151.184;2023-04-06T04:34:48;23.20;99.90
16441;DHT22;8330;-33.858;151.184;2023-04-06T04:37:20;23.20;99.90
16441;DHT22;8330;-33.858;151.184;2023-04-06T04:39:53;23.30;99.90
16441;DHT22;8330;-33.858;151.184;2023-04-06T04:42:25;23.30;99.90
16441;DHT22;8330;-33.858;151.184;2023-04-06T04:44:58;23.30;99.90
16441;DHT22;8330;-33.858;151.184;2023-04-06T04:47:29;23.40;99.90
16441;DHT22;8330;-33.858;151.184;2023-04-06T04:50:01;23.50;99.90
16441;DHT22;8330;-33.858;151.184;2023-04-06T04:52:32;23.40;99.90
16441;DHT22;8330;-33.858;151.184;2023-04-06T04:55:06;23.50;99.90
16441;DHT22;8330;-33.858;151.184;2023-04-06T04:57:38;23.50;99.90
16441;DHT22;8330;-33.858;151.184;2023-04-06T05:00:10;23.50;99.90
16441;DHT22;8330;-33.858;151.184;2023-04-06T05:02:41;23.50;99.90
16441;DHT22;8330;-33.858;151.184;2023-04-06T05:05:15;23.30;99.90
16441;DHT22;8330;-33.858;151.184;2023-04-06T05:07:46;23.40;99.90
16441;DHT22;8330;-33.858;151.184;2023-04-06T05:10:20;23.40;99.90
16441;DHT22;8330;-33.858;151.184;2023-04-06T05:12:51;23.40;99.90
16441;DHT22;8330;-33.858;151.184;2023-04-06T05:15:22;23.40;99.90
16441;DHT22;8330;-33.858;151.184;2023-04-06T05:17:54;23.40;99.90
16441;DHT22;8330;-33.858;151.184;2023-04-06T05:20:26;23.40;99.90
16441;DHT22;8330;-33.858;151.184;2023-04-06T05:22:57;23.40;99.90
16441;DHT22;8330;-33.858;151.184;2023-04-06T05:25:30;23.40;99.90
16441;DHT22;8330;-33.858;151.184;2023-04-06T05:28:02;23.40;99.90
16441;DHT22;8330;-33.858;151.184;2023-04-06T05:30:34;23.50;99.90
16441;DHT22;8330;-33.858;151.184;2023-04-06T05:33:05;23.50;99.90
16441;DHT22;8330;-33.858;151.184;2023-04-06T05:35:36;23.40;99.90
16441;DHT22;8330;-33.858;151.184;2023-04-06T05:38:09;23.40;99.90
16441;DHT22;8330;-33.858;151.184;2023-04-06T05:40:42;23.40;99.90
16441;DHT22;8330;-33.858;151.184;2023-04-06T05:43:13;23.40;99.90
16441;DHT22;8330;-33.858;151.184;2023-04-06T05:45:46;23.30;99.90
16441;DHT22;8330;-33.858;151.184;2023-04-06T05:48:17;23.30;99.90
16441;DHT22;8330;-33.858;151.184;2023-04-06T05:50:50;23.30;99.90
16441;DHT22;8330;-33.858;151.184;2023-04-06T05:53:21;23.30;99.90
16441;DHT22;8330;-33.858;151.184;2023-04-06T05:55:56;23.30;99.90
16441;DHT22;8330;-33.858;151.184;2023-04-06T05:58:27;23.20;99.90
16441;DHT22;8330;-33.858;151.184;2023-04-06T06:00:59;23.20;99.90
16441;DHT22;8330;-33.858;151.184;2023-04-06T06:03:30;23.10;99.90
16441;DHT22;8330;-33.858;151.184;2023-04-06T06:06:02;23.20;99.90
16441;DHT22;8330;-33.858;151.184;2023-04-06T06:08:33;23.10;99.90
16441;DHT22;8330;-33.858;151.184;2023-04-06T06:11:06;23.10;99.90
16441;DHT22;8330;-33.858;151.184;2023-04-06T06:13:37;23.10;99.90
16441;DHT22;8330;-33.858;151.184;2023-04-06T06:16:09;23.10;99.90
16441;DHT22;8330;-33.858;151.184;2023-04-06T06:18:40;23.00;99.90
16441;DHT22;8330;-33.858;151.184;2023-04-06T06:21:12;22.90;99.90
16441;DHT22;8330;-33.858;151.184;2023-04-06T06:23:44;23.00;99.90
16441;DHT22;8330;-33.858;151.184;2023-04-06T06:26:18;23.00;99.90
16441;DHT22;8330;-33.858;151.184;2023-04-06T06:28:49;23.00;99.90
16441;DHT22;8330;-33.858;151.184;2023-04-06T06:31:20;23.00;99.90
16441;DHT22;8330;-33.858;151.184;2023-04-06T06:33:52;23.00;99.90
16441;DHT22;8330;-33.858;151.184;2023-04-06T06:36:23;22.90;99.90
16441;DHT22;8330;-33.858;151.184;2023-04-06T06:38:55;22.90;99.90
16441;DHT22;8330;-33.858;151.184;2023-04-06T06:41:28;22.80;99.90
16441;DHT22;8330;-33.858;151.184;2023-04-06T06:43:59;22.80;99.90
16441;DHT22;8330;-33.858;151.184;2023-04-06T06:46:30;22.80;99.90
16441;DHT22;8330;-33.858;151.184;2023-04-06T06:49:01;22.80;99.90
16441;DHT22;8330;-33.858;151.184;2023-04-06T06:51:33;22.70;99.90
16441;DHT22;8330;-33.858;151.184;2023-04-06T06:54:04;22.70;99.90
16441;DHT22;8330;-33.858;151.184;2023-04-06T06:56:37;22.70;99.90
16441;DHT22;8330;-33.858;151.184;2023-04-06T06:59:08;22.70;99.90
16441;DHT22;8330;-33.858;151.184;2023-04-06T07:01:39;22.60;99.90
16441;DHT22;8330;-33.858;151.184;2023-04-06T07:04:11;22.60;99.90
16441;DHT22;8330;-33.858;151.184;2023-04-06T07:06:42;22.60;99.90
16441;DHT22;8330;-33.858;151.184;2023-04-06T07:09:13;22.60;99.90
16441;DHT22;8330;-33.858;151.184;2023-04-06T07:11:46;22.60;99.90
16441;DHT22;8330;-33.858;151.184;2023-04-06T07:14:18;22.50;99.90
16441;DHT22;8330;-33.858;151.184;2023-04-06T07:16:49;22.50;99.90
16441;DHT22;8330;-33.858;151.184;2023-04-06T07:19:20;22.50;99.90
16441;DHT22;8330;-33.858;151.184;2023-04-06T07:21:52;22.50;99.90
16441;DHT22;8330;-33.858;151.184;2023-04-06T07:24:24;22.40;99.90
16441;DHT22;8330;-33.858;151.184;2023-04-06T07:26:58;22.40;99.90
16441;DHT22;8330;-33.858;151.184;2023-04-06T07:29:30;22.40;99.90
16441;DHT22;8330;-33.858;151.184;2023-04-06T07:32:01;22.40;99.90
16441;DHT22;8330;-33.858;151.184;2023-04-06T07:34:34;22.40;99.90
16441;DHT22;8330;-33.858;151.184;2023-04-06T07:37:05;22.40;99.90
16441;DHT22;8330;-33.858;151.184;2023-04-06T07:39:36;22.40;99.90
16441;DHT22;8330;-33.858;151.184;2023-04-06T07:42:12;22.30;99.90
16441;DHT22;8330;-33.858;151.184;2023-04-06T07:44:43;22.30;99.90
16441;DHT22;8330;-33.858;151.184;2023-04-06T07:47:14;22.30;99.90
16441;DHT22;8330;-33.858;151.184;2023-04-06T07:49:46;22.30;99.90
16441;DHT22;8330;-33.858;151.184;2023-04-06T07:52:17;22.30;99.90
16441;DHT22;8330;-33.858;151.184;2023-04-06T07:54:48;22.30;99.90
16441;DHT22;8330;-33.858;151.184;2023-04-06T07:57:23;22.20;99.90
16441;DHT22;8330;-33.858;151.184;2023-04-06T07:59:55;22.20;99.90
16441;DHT22;8330;-33.858;151.184;2023-04-06T08:02:27;22.20;99.90
16441;DHT22;8330;-33.858;151.184;2023-04-06T08:04:59;22.10;99.90
16441;DHT22;8330;-33.858;151.184;2023-04-06T08:07:30;22.10;99.90
16441;DHT22;8330;-33.858;151.184;2023-04-06T08:10:01;22.00;99.90
16441;DHT22;8330;-33.858;151.184;2023-04-06T08:12:34;22.10;99.90
16441;DHT22;8330;-33.858;151.184;2023-04-06T08:15:06;22.00;99.90
16441;DHT22;8330;-33.858;151.184;2023-04-06T08:17:37;22.00;99.90
16441;DHT22;8330;-33.858;151.184;2023-04-06T08:20:09;22.00;99.90
16441;DHT22;8330;-33.858;151.184;2023-04-06T08:22:41;22.00;99.90
16441;DHT22;8330;-33.858;151.184;2023-04-06T08:25:12;21.90;99.90
16441;DHT22;8330;-33.858;151.184;2023-04-06T08:27:45;21.90;99.90
16441;DHT22;8330;-33.858;151.184;2023-04-06T08:30:17;21.90;99.90
16441;DHT22;8330;-33.858;151.184;2023-04-06T08:32:48;21.90;99.90
16441;DHT22;8330;-33.858;151.184;2023-04-06T08:35:20;21.80;99.90
16441;DHT22;8330;-33.858;151.184;2023-04-06T08:37:51;21.80;99.90
16441;DHT22;8330;-33.858;151.184;2023-04-06T08:40:22;21.70;99.90
16441;DHT22;8330;-33.858;151.184;2023-04-06T08:42:56;21.70;99.90
16441;DHT22;8330;-33.858;151.184;2023-04-06T08:45:30;21.70;99.90
16441;DHT22;8330;-33.858;151.184;2023-04-06T08:48:03;21.60;99.90
16441;DHT22;8330;-33.858;151.184;2023-04-06T08:50:35;21.60;99.90
16441;DHT22;8330;-33.858;151.184;2023-04-06T08:53:07;21.60;99.90
16441;DHT22;8330;-33.858;151.184;2023-04-06T08:55:38;21.50;99.90
16441;DHT22;8330;-33.858;151.184;2023-04-06T08:58:12;21.50;99.90
16441;DHT22;8330;-33.858;151.184;2023-04-06T09:00:43;21.50;99.90
16441;DHT22;8330;-33.858;151.184;2023-04-06T09:03:15;21.50;99.90
16441;DHT22;8330;-33.858;151.184;2023-04-06T09:05:47;21.50;99.90
16441;DHT22;8330;-33.858;151.184;2023-04-06T09:08:18;21.40;99.90
16441;DHT22;8330;-33.858;151.184;2023-04-06T09:10:50;21.40;99.90
16441;DHT22;8330;-33.858;151.184;2023-04-06T09:13:24;21.40;99.90
16441;DHT22;8330;-33.858;151.184;2023-04-06T09:16:02;21.40;99.90
16441;DHT22;8330;-33.858;151.184;2023-04-06T09:18:34;21.30;99.90
16441;DHT22;8330;-33.858;151.184;2023-04-06T09:21:06;21.30;99.90
16441;DHT22;8330;-33.858;151.184;2023-04-06T09:23:38;21.30;99.90
16441;DHT22;8330;-33.858;151.184;2023-04-06T09:26:11;21.30;99.90
16441;DHT22;8330;-33.858;151.184;2023-04-06T09:28:48;21.30;99.90
16441;DHT22;8330;-33.858;151.184;2023-04-06T09:31:24;21.20;99.90
16441;DHT22;8330;-33.858;151.184;2023-04-06T09:33:56;21.20;99.90
16441;DHT22;8330;-33.858;151.184;2023-04-06T09:36:34;21.20;99.90
16441;DHT22;8330;-33.858;151.184;2023-04-06T09:39:06;21.20;99.90
16441;DHT22;8330;-33.858;151.184;2023-04-06T09:41:37;21.10;99.90
16441;DHT22;8330;-33.858;151.184;2023-04-06T09:44:12;21.10;99.90
16441;DHT22;8330;-33.858;151.184;2023-04-06T09:46:44;21.10;99.90
16441;DHT22;8330;-33.858;151.184;2023-04-06T09:49:15;21.00;99.90
16441;DHT22;8330;-33.858;151.184;2023-04-06T09:51:49;21.00;99.90
16441;DHT22;8330;-33.858;151.184;2023-04-06T09:54:23;21.00;99.90
16441;DHT22;8330;-33.858;151.184;2023-04-06T09:57:01;20.90;99.90
16441;DHT22;8330;-33.858;151.184;2023-04-06T09:59:50;20.90;99.90
16441;DHT22;8330;-33.858;151.184;2023-04-06T10:02:30;20.90;99.90
16441;DHT22;8330;-33.858;151.184;2023-04-06T10:05:07;20.90;99.90
16441;DHT22;8330;-33.858;151.184;2023-04-06T10:07:41;20.90;99.90
16441;DHT22;8330;-33.858;151.184;2023-04-06T10:10:15;20.90;99.90
16441;DHT22;8330;-33.858;151.184;2023-04-06T10:12:47;20.80;99.90
16441;DHT22;8330;-33.858;151.184;2023-04-06T10:15:21;20.90;99.90
16441;DHT22;8330;-33.858;151.184;2023-04-06T10:17:52;20.90;99.90
16441;DHT22;8330;-33.858;151.184;2023-04-06T10:20:27;20.80;99.90
16441;DHT22;8330;-33.858;151.184;2023-04-06T10:23:02;20.80;99.90
16441;DHT22;8330;-33.858;151.184;2023-04-06T10:25:36;20.70;99.90
16441;DHT22;8330;-33.858;151.184;2023-04-06T10:28:08;20.70;99.90
16441;DHT22;8330;-33.858;151.184;2023-04-06T10:30:44;20.70;99.90
16441;DHT22;8330;-33.858;151.184;2023-04-06T10:33:16;20.70;99.90
16441;DHT22;8330;-33.858;151.184;2023-04-06T10:35:48;20.60;99.90
16441;DHT22;8330;-33.858;151.184;2023-04-06T10:38:19;20.70;99.90
16441;DHT22;8330;-33.858;151.184;2023-04-06T10:40:52;20.60;99.90
16441;DHT22;8330;-33.858;151.184;2023-04-06T10:43:23;20.60;99.90
16441;DHT22;8330;-33.858;151.184;2023-04-06T10:45:59;20.60;99.90
16441;DHT22;8330;-33.858;151.184;2023-04-06T10:48:38;20.60;99.90
16441;DHT22;8330;-33.858;151.184;2023-04-06T10:51:11;20.60;99.90
16441;DHT22;8330;-33.858;151.184;2023-04-06T10:53:43;20.70;99.90
16441;DHT22;8330;-33.858;151.184;2023-04-06T10:56:15;20.60;99.90
16441;DHT22;8330;-33.858;151.184;2023-04-06T10:58:48;20.70;99.90
16441;DHT22;8330;-33.858;151.184;2023-04-06T11:01:22;20.60;99.90
16441;DHT22;8330;-33.858;151.184;2023-04-06T11:03:55;20.60;99.90
16441;DHT22;8330;-33.858;151.184;2023-04-06T11:06:29;20.60;99.90
16441;DHT22;8330;-33.858;151.184;2023-04-06T11:09:00;20.60;99.90
16441;DHT22;8330;-33.858;151.184;2023-04-06T11:11:32;20.60;99.90
16441;DHT22;8330;-33.858;151.184;2023-04-06T11:14:03;20.60;99.90
16441;DHT22;8330;-33.858;151.184;2023-04-06T11:16:36;20.60;99.90
16441;DHT22;8330;-33.858;151.184;2023-04-06T11:19:07;20.60;99.90
16441;DHT22;8330;-33.858;151.184;2023-04-06T11:21:41;20.60;99.90
16441;DHT22;8330;-33.858;151.184;2023-04-06T11:24:15;20.50;99.90
16441;DHT22;8330;-33.858;151.184;2023-04-06T11:26:48;20.50;99.90
16441;DHT22;8330;-33.858;151.184;2023-04-06T11:29:20;20.40;99.90
16441;DHT22;8330;-33.858;151.184;2023-04-06T11:31:58;20.40;99.90
16441;DHT22;8330;-33.858;151.184;2023-04-06T11:34:30;20.40;99.90
16441;DHT22;8330;-33.858;151.184;2023-04-06T11:37:02;20.40;99.90
16441;DHT22;8330;-33.858;151.184;2023-04-06T11:39:38;20.40;99.90
16441;DHT22;8330;-33.858;151.184;2023-04-06T11:42:10;20.40;99.90
16441;DHT22;8330;-33.858;151.184;2023-04-06T11:44:43;20.40;99.90
16441;DHT22;8330;-33.858;151.184;2023-04-06T11:47:16;20.40;99.90
16441;DHT22;8330;-33.858;151.184;2023-04-06T11:49:48;20.40;99.90
16441;DHT22;8330;-33.858;151.184;2023-04-06T11:52:23;20.40;99.90
16441;DHT22;8330;-33.858;151.184;2023-04-06T11:54:55;20.40;99.90
16441;DHT22;8330;-33.858;151.184;2023-04-06T11:57:26;20.40;99.90
16441;DHT22;8330;-33.858;151.184;2023-04-06T11:59:57;20.40;99.90
16441;DHT22;8330;-33.858;151.184;2023-04-06T12:02:30;20.30;99.90
16441;DHT22;8330;-33.858;151.184;2023-04-06T12:05:02;20.30;99.90
16441;DHT22;8330;-33.858;151.184;2023-04-06T12:07:33;20.40;99.90
16441;DHT22;8330;-33.858;151.184;2023-04-06T12:10:05;20.30;99.90
16441;DHT22;8330;-33.858;151.184;2023-04-06T12:12:36;20.20;99.90
16441;DHT22;8330;-33.858;151.184;2023-04-06T12:15:08;20.20;99.90
16441;DHT22;8330;-33.858;151.184;2023-04-06T12:17:41;20.20;99.90
16441;DHT22;8330;-33.858;151.184;2023-04-06T12:20:12;20.20;99.90
16441;DHT22;8330;-33.858;151.184;2023-04-06T12:22:44;20.20;99.90
16441;DHT22;8330;-33.858;151.184;2023-04-06T12:25:15;20.10;99.90
16441;DHT22;8330;-33.858;151.184;2023-04-06T12:27:46;20.10;99.90
16441;DHT22;8330;-33.858;151.184;2023-04-06T12:30:18;20.10;99.90
16441;DHT22;8330;-33.858;151.184;2023-04-06T12:32:51;20.20;99.90
16441;DHT22;8330;-33.858;151.184;2023-04-06T12:35:22;20.10;99.90
16441;DHT22;8330;-33.858;151.184;2023-04-06T12:37:53;20.10;99.90
16441;DHT22;8330;-33.858;151.184;2023-04-06T12:40:25;20.10;99.90
16441;DHT22;8330;-33.858;151.184;2023-04-06T12:42:56;20.10;99.90
16441;DHT22;8330;-33.858;151.184;2023-04-06T12:45:27;20.10;99.90
16441;DHT22;8330;-33.858;151.184;2023-04-06T12:48:00;20.10;99.90
16441;DHT22;8330;-33.858;151.184;2023-04-06T12:50:32;20.00;99.90
16441;DHT22;8330;-33.858;151.184;2023-04-06T12:53:03;20.00;99.90
16441;DHT22;8330;-33.858;151.184;2023-04-06T12:55:34;20.00;99.90
16441;DHT22;8330;-33.858;151.184;2023-04-06T12:58:05;20.00;99.90
16441;DHT22;8330;-33.858;151.184;2023-04-06T13:00:36;20.00;99.90
16441;DHT22;8330;-33.858;151.184;2023-04-06T13:03:10;20.00;99.90
16441;DHT22;8330;-33.858;151.184;2023-04-06T13:05:45;20.00;99.90
16441;DHT22;8330;-33.858;151.184;2023-04-06T13:08:17;20.00;99.90
16441;DHT22;8330;-33.858;151.184;2023-04-06T13:10:49;20.00;99.90
16441;DHT22;8330;-33.858;151.184;2023-04-06T13:13:23;20.00;99.90
16441;DHT22;8330;-33.858;151.184;2023-04-06T13:15:58;20.00;99.90
16441;DHT22;8330;-33.858;151.184;2023-04-06T13:18:32;20.00;99.90
16441;DHT22;8330;-33.858;151.184;2023-04-06T13:21:04;20.00;99.90
16441;DHT22;8330;-33.858;151.184;2023-04-06T13:23:36;20.00;99.90
16441;DHT22;8330;-33.858;151.184;2023-04-06T13:26:08;20.00;99.90
16441;DHT22;8330;-33.858;151.184;2023-04-06T13:28:41;20.00;99.90
16441;DHT22;8330;-33.858;151.184;2023-04-06T13:31:12;20.00;99.90
16441;DHT22;8330;-33.858;151.184;2023-04-06T13:33:45;19.90;99.90
16441;DHT22;8330;-33.858;151.184;2023-04-06T13:36:16;19.80;99.90
16441;DHT22;8330;-33.858;151.184;2023-04-06T13:38:47;19.80;99.90
16441;DHT22;8330;-33.858;151.184;2023-04-06T13:41:21;19.80;99.90
16441;DHT22;8330;-33.858;151.184;2023-04-06T13:43:53;19.80;99.90
16441;DHT22;8330;-33.858;151.184;2023-04-06T13:46:25;19.80;99.90
16441;DHT22;8330;-33.858;151.184;2023-04-06T13:48:59;19.80;99.90
16441;DHT22;8330;-33.858;151.184;2023-04-06T13:51:30;19.80;99.90
16441;DHT22;8330;-33.858;151.184;2023-04-06T13:54:02;19.80;99.90
16441;DHT22;8330;-33.858;151.184;2023-04-06T13:56:33;19.80;99.90
16441;DHT22;8330;-33.858;151.184;2023-04-06T13:59:04;19.80;99.90
16441;DHT22;8330;-33.858;151.184;2023-04-06T14:01:35;19.90;99.90
16441;DHT22;8330;-33.858;151.184;2023-04-06T14:04:09;19.80;99.90
16441;DHT22;8330;-33.858;151.184;2023-04-06T14:06:40;19.90;99.90
16441;DHT22;8330;-33.858;151.184;2023-04-06T14:09:11;19.80;99.90
16441;DHT22;8330;-33.858;151.184;2023-04-06T14:11:42;19.80;99.90
16441;DHT22;8330;-33.858;151.184;2023-04-06T14:14:13;19.80;99.90
16441;DHT22;8330;-33.858;151.184;2023-04-06T14:16:44;19.80;99.90
16441;DHT22;8330;-33.858;151.184;2023-04-06T14:19:18;19.80;99.90
16441;DHT22;8330;-33.858;151.184;2023-04-06T14:21:49;19.80;99.90
16441;DHT22;8330;-33.858;151.184;2023-04-06T14:24:20;19.80;99.90
16441;DHT22;8330;-33.858;151.184;2023-04-06T14:26:51;19.70;99.90
16441;DHT22;8330;-33.858;151.184;2023-04-06T14:29:22;19.70;99.90
16441;DHT22;8330;-33.858;151.184;2023-04-06T14:31:53;19.60;99.90
16441;DHT22;8330;-33.858;151.184;2023-04-06T14:34:29;19.60;99.90
16441;DHT22;8330;-33.858;151.184;2023-04-06T14:37:02;19.60;99.90
16441;DHT22;8330;-33.858;151.184;2023-04-06T14:39:34;19.60;99.90
16441;DHT22;8330;-33.858;151.184;2023-04-06T14:42:05;19.70;99.90
16441;DHT22;8330;-33.858;151.184;2023-04-06T14:44:36;19.70;99.90
16441;DHT22;8330;-33.858;151.184;2023-04-06T14:47:10;19.70;99.90
16441;DHT22;8330;-33.858;151.184;2023-04-06T14:49:45;19.60;99.90
16441;DHT22;8330;-33.858;151.184;2023-04-06T14:52:16;19.60;99.90
16441;DHT22;8330;-33.858;151.184;2023-04-06T14:54:47;19.60;99.90
16441;DHT22;8330;-33.858;151.184;2023-04-06T14:57:18;19.60;99.90
16441;DHT22;8330;-33.858;151.184;2023-04-06T14:59:50;19.50;99.90
16441;DHT22;8330;-33.858;151.184;2023-04-06T15:02:23;19.60;99.90
16441;DHT22;8330;-33.858;151.184;2023-04-06T15:04:56;19.60;99.90
16441;DHT22;8330;-33.858;151.184;2023-04-06T15:07:27;19.50;99.90
16441;DHT22;8330;-33.858;151.184;2023-04-06T15:09:58;19.50;99.90
16441;DHT22;8330;-33.858;151.184;2023-04-06T15:12:29;19.50;99.90
16441;DHT22;8330;-33.858;151.184;2023-04-06T15:15:01;19.50;99.90
16441;DHT22;8330;-33.858;151.184;2023-04-06T15:17:33;19.60;99.90
16441;DHT22;8330;-33.858;151.184;2023-04-06T15:20:06;19.60;99.90
16441;DHT22;8330;-33.858;151.184;2023-04-06T15:22:37;19.60;99.90
16441;DHT22;8330;-33.858;151.184;2023-04-06T15:25:09;19.70;99.90
16441;DHT22;8330;-33.858;151.184;2023-04-06T15:27:40;19.60;99.90
16441;DHT22;8330;-33.858;151.184;2023-04-06T15:30:12;19.70;99.90
16441;DHT22;8330;-33.858;151.184;2023-04-06T15:32:51;19.70;99.90